METAR Data
IDs: Format: Raw Decoded Include TAF

Data at: 2119 UTC 18 Apr 2021

EGXC 182050Z 09003KT CAVOK 05/02 Q1025 RMK BLU